world map with KJWN marked

KJWN - Airport

This information may not be accurate or current and is not valid for navigation or flight planning. No warranty of fitness for any purpose is made or implied.

flag of Tennesseeflag of United States

Donate via PayPal

Additional information is available on the NEW Great Circle Mapper

Location
City:  Nashville, Tennessee, United States
Name:John C Tune Airport
ICAO:KJWN
FAA:JWN

Details
Type:Airport (Airfield)
Use:Public/Civil
Latitude:36°10'59"N (36.183022)
Longitude:86°53'11"W (-86.886494)
Datum:WGS 1984
Elevation:501 ft (153 m)
Runways:1
Longest:6001 × 100 ft (1829 × 30.5 m)

Weather
METAR:KJWN  231935Z AUTO 27009G17KT 10SM OVC032 06/M01 A3004 RMK A01

Related Locations
Nearby:
Farthest:MQZ: 11190 mi / 18009 km
Margaret River [Margaret River Airport], WA, AU

Find:

   beyond  
but within

Other Information
Maps:
Links:
Sources:

  

Sectional Chart

Flight Planning
at skyvector.com

 


Great Circle Mapper   Great Circle Mapper
Great Circle Mapper FAQ   Great Circle Mapper FAQ
  Karl's Home Page
KLSē   KLSē Home
   GC on Facebook
Airlines of the World   Airlines of the World
Donate via PayPal


Copyright © 2004-2017, Karl L. Swartz. All rights reserved.
All trademarks mentioned herein belong to their respective owners.

Please see credits for attribution and copyright information.

Karl Swartz <karl@kls2.com>
  Powered by FreeBSD
Valid HTML 4.01!
Labeled with ICRA
hCard Microformat
Geo Microformat